Latest Weather Observations for Lucas Heights

IDN60801

Issued at 11:32 pm EDT Monday 30 March 2015 (issued every 30 minutes, with the page automatically refreshed every 10 minutes)

About weather observations | Map of weather stations | Latest weather observations for NSW | Other Formats
Station Details ID: 066023 Name: LUCAS HEIGHTS AWS Lat: -34.05 Lon: 150.98 Height: 140.0 m
Data from the previous 72 hours. | See also: Recent months for locations in New South Wales
Date/Time
EDT
Temp
°C
App
Temp
°C
Dew
Point
Rel
Hum
%
Delta-T
°C
Wind Press
QNH
hPa
Press
MSL
hPa
Rain
since 9 am
mm
Dir
 
Spd
km/h
Gust
km/h
Spd
kts
Gust
kts
30/11:15pm 18.1 18.8 16.1 88 1.2 SSE 7 9 4 5 1025.5 - 0.0
30/11:00pm 18.2 18.9 16.1 87 1.3 SSE 7 9 4 5 1025.4 - 0.0
30/10:45pm 18.4 19.1 16.2 87 1.3 SSE 7 9 4 5 1025.3 - 0.0
30/10:30pm 18.5 18.9 16.3 87 1.3 SSE 9 11 5 6 1025.3 - 0.0
30/10:15pm 18.4 19.3 16.1 86 1.4 SSE 6 7 3 4 1025.4 - 0.0
30/10:00pm 18.5 19.4 16.1 86 1.4 SE 6 7 3 4 1025.4 - 0.0
30/09:45pm 18.7 19.6 16.2 85 1.5 ESE 6 9 3 5 1025.4 - 0.0
30/09:30pm 18.7 19.4 16.2 85 1.5 SE 7 9 4 5 1025.3 - 0.0
30/09:15pm 18.8 19.6 16.3 85 1.5 SE 7 9 4 5 1025.2 - 0.0
30/09:00pm 18.9 19.7 16.3 85 1.6 SE 7 9 4 5 1025.2 - 0.0
30/08:45pm 19.1 19.9 16.3 84 1.7 SSE 7 7 4 4 1025.1 - 0.0
30/08:30pm 19.2 19.9 16.2 83 1.8 SSE 7 9 4 5 1024.9 - 0.0
30/08:15pm 19.4 20.3 16.2 82 1.9 SSE 6 7 3 4 1024.8 - 0.0
30/08:00pm 19.6 20.3 16.2 81 2.0 SE 7 9 4 5 1024.7 - 0.0
30/07:45pm 19.7 20.1 16.2 80 2.1 SE 9 13 5 7 1024.4 - 0.0
30/07:30pm 19.8 20.5 16.1 79 2.2 SE 7 9 4 5 1024.2 - 0.0
30/07:15pm 20.0 20.9 16.2 79 2.3 ESE 6 7 3 4 1024.2 - 0.0
30/07:00pm 20.2 21.1 16.2 78 2.4 E 6 7 3 4 1024.1 - 0.0
30/06:45pm 20.4 21.3 16.0 76 2.6 E 6 11 3 6 1024.0 - 0.0
30/06:30pm 20.6 21.2 15.9 74 2.8 E 7 17 4 9 1023.8 - 0.0
30/06:15pm 20.8 20.6 15.8 73 3.0 E 11 17 6 9 1023.5 - 0.0
30/06:00pm 20.9 20.3 15.6 71 3.2 E 13 19 7 10 1023.4 - 0.0
30/05:45pm 21.2 21.1 15.9 72 3.2 E 11 17 6 9 1023.3 - 0.0
30/05:30pm 21.3 21.3 16.3 73 3.0 E 11 17 6 9 1023.0 - 0.0
30/05:15pm 21.4 21.8 16.4 73 3.0 E 9 17 5 9 1022.9 - 0.0
30/05:00pm 21.8 21.9 16.4 71 3.3 E 11 19 6 10 1022.8 - 0.0
30/04:45pm 21.8 21.6 16.8 73 3.1 E 13 17 7 9 1022.8 - 0.0
30/04:30pm 22.1 21.7 16.3 69 3.5 E 13 20 7 11 1022.6 - 0.0
30/04:15pm 22.4 21.6 16.2 68 3.8 E 15 24 8 13 1022.5 - 0.0
30/04:00pm 22.0 20.7 15.9 68 3.7 E 17 20 9 11 1022.5 - 0.0
30/03:45pm 22.7 22.0 15.4 63 4.4 E 13 20 7 11 1022.7 - 0.0
30/03:30pm 23.2 22.8 16.1 64 4.3 ENE 13 19 7 10 1022.6 - 0.0
30/03:15pm 23.1 23.4 16.0 64 4.3 E 9 19 5 10 1022.6 - 0.0
30/03:00pm 23.5 23.9 16.2 63 4.5 E 9 17 5 9 1022.6 - 0.0
30/02:45pm 23.2 24.2 16.8 67 3.9 ENE 7 13 4 7 1022.6 - 0.0
30/02:30pm 22.2 23.0 16.4 69 3.5 NE 7 11 4 6 1022.7 - 0.0
30/02:15pm 21.8 23.3 16.6 72 3.2 NE 4 11 2 6 1022.7 - 0.0
30/02:00pm 21.1 22.1 16.4 74 2.9 NE 6 9 3 5 1022.9 - 0.0
30/01:45pm 20.7 21.4 15.5 72 3.1 NE 6 11 3 6 1023.1 - 0.0
30/01:30pm 21.2 20.8 15.2 68 3.6 ENE 11 22 6 12 1023.3 - 0.0
30/01:15pm 21.3 21.6 14.9 67 3.8 E 7 13 4 7 1023.4 - 0.0
30/01:00pm 21.0 21.5 15.0 68 3.6 E 6 13 3 7 1023.5 - 0.0
30/12:45pm 20.7 21.5 14.8 69 3.5 ESE 4 9 2 5 1023.7 - 0.0
30/12:30pm 20.4 21.7 15.2 72 3.1 ENE 2 7 1 4 1023.9 - 0.0
30/12:15pm 20.0 20.1 15.6 76 2.6 ESE 9 15 5 8 1024.0 - 0.0
30/12:00pm 19.6 19.1 15.9 79 2.2 SSE 13 19 7 10 1024.0 - 0.0
30/11:45am 19.4 19.2 15.8 80 2.2 SSE 11 19 6 10 1024.1 - 0.0
30/11:30am 19.6 19.5 16.1 80 2.1 ESE 11 19 6 10 1024.4 - 0.0
30/11:15am 19.8 18.5 17.3 85 1.5 E 20 39 11 21 1024.9 - 0.0
30/11:00am 20.4 19.8 18.4 88 1.3 ESE 19 35 10 19 1024.9 - 0.0
30/10:45am 20.3 21.2 18.4 89 1.2 E 11 19 6 10 1024.7 - 0.0
30/10:30am 20.2 20.8 18.7 91 0.9 ESE 13 19 7 10 1024.4 - 0.0
30/10:15am 19.8 21.5 18.5 92 0.8 ESE 7 13 4 7 1024.3 - 0.0
30/10:00am 19.3 20.4 18.1 93 0.7 SSE 9 11 5 6 1024.2 - 0.0
30/09:45am 18.8 19.4 17.8 94 0.6 S 11 13 6 7 1024.1 - 0.0
30/09:30am 18.4 19.2 17.4 94 0.6 S 9 13 5 7 1024.2 - 0.0
30/09:15am 18.3 18.3 17.2 93 0.7 S 13 15 7 8 1024.4 - 0.0
30/09:00am 18.2 17.8 17.2 94 0.6 SSW 15 19 8 10 1024.5 - 0.0
30/08:45am 18.0 17.9 17.0 94 0.6 WSW 13 19 7 10 1024.4 - 0.0
30/08:30am 18.1 19.2 17.2 94 0.5 WSW 7 11 4 6 1024.2 - 0.0
30/08:15am 17.8 19.0 16.9 94 0.5 S 6 9 3 5 1024.0 - 0.0
30/08:00am 17.5 18.6 16.5 94 0.6 SE 6 7 3 4 1023.9 - 0.0
30/07:45am 17.0 18.3 16.1 94 0.5 SE 4 7 2 4 1023.7 - 0.0
30/07:30am 16.5 17.0 15.5 94 0.6 SE 7 9 4 5 1023.6 - 0.0
30/07:15am 16.4 17.0 15.4 94 0.6 SE 6 7 3 4 1023.3 - 0.0
30/07:00am 16.4 17.8 15.4 94 0.6 SSE 2 4 1 2 1023.2 - 0.0
30/06:45am 16.3 17.7 15.4 94 0.5 S 2 4 1 2 1023.0 - 0.0
30/06:30am 16.2 17.1 15.2 94 0.6 SSE 4 6 2 3 1022.7 - 0.0
30/06:15am 15.9 16.4 14.9 94 0.6 S 6 7 3 4 1022.5 - 0.0
30/06:00am 15.9 17.1 14.9 94 0.6 S 2 4 1 2 1022.3 - 0.0
30/05:45am 15.8 16.6 14.8 94 0.6 SSE 4 6 2 3 1022.2 - 0.0
30/05:30am 15.7 16.5 14.7 94 0.6 S 4 4 2 2 1022.1 - 0.0
30/05:15am 15.8 16.9 14.7 93 0.6 S 2 4 1 2 1022.0 - 0.0
30/05:00am 15.8 17.3 14.7 93 0.6 CALM 0 2 0 1 1021.9 - 0.0
30/04:45am 15.8 17.3 14.7 93 0.6 CALM 0 0 0 0 1021.9 - 0.0
30/04:30am 15.8 16.9 14.7 93 0.6 E 2 2 1 1 1021.8 - 0.0
30/04:15am 15.8 16.9 14.7 93 0.6 E 2 4 1 2 1021.9 - 0.0
30/04:00am 15.7 16.4 14.6 93 0.6 ESE 4 4 2 2 1021.9 - 0.0
30/03:45am 15.7 16.4 14.6 93 0.6 ESE 4 6 2 3 1021.9 - 0.0
30/03:30am 15.7 16.4 14.6 93 0.6 SE 4 6 2 3 1022.0 - 0.0
30/03:15am 15.7 16.0 14.6 93 0.6 SE 6 6 3 3 1022.1 - 0.0
30/03:00am 15.7 16.0 14.6 93 0.6 SE 6 7 3 4 1022.2 - 0.0
30/02:45am 15.8 16.1 14.6 93 0.7 SSE 6 7 3 4 1022.4 - 0.0
30/02:30am 15.7 16.0 14.6 93 0.6 SSE 6 7 3 4 1022.5 - 0.0
30/02:15am 15.7 16.0 14.5 93 0.7 SSE 6 7 3 4 1022.6 - 0.0
30/02:00am 15.6 15.9 14.4 93 0.7 SSE 6 6 3 3 1022.6 - 0.0
30/01:45am 15.5 16.1 14.3 92 0.7 S 4 6 2 3 1022.8 - 0.0
30/01:30am 15.4 15.9 14.1 92 0.7 SSW 4 6 2 3 1022.9 - 0.0
30/01:15am 15.4 15.9 14.0 91 0.8 SSW 4 4 2 2 1022.9 - 0.0
30/01:00am 15.7 16.7 14.3 91 0.8 SW 2 4 1 2 1023.0 - 0.0
30/12:45am 15.8 16.8 14.4 91 0.8 WSW 2 4 1 2 1023.0 - 0.0
30/12:30am 15.9 16.9 14.4 91 0.9 SW 2 4 1 2 1023.2 - 0.0
30/12:15am 16.0 17.0 14.4 90 0.9 SW 2 4 1 2 1023.3 - 0.0
30/12:00am 16.2 17.3 14.5 90 1.0 SSW 2 4 1 2 1023.3 - 0.0
 
Date/Time
EDT
Temp
°C
App
Temp
°C
Dew
Point
Rel
Hum
%
Delta-T
°C
Wind Press
QNH
hPa
Press
MSL
hPa
Rain
since 9 am
mm
Dir
 
Spd
km/h
Gust
km/h
Spd
kts
Gust
kts
29/11:45pm 16.4 17.5 14.7 90 1.0 W 2 4 1 2 1023.3 - 0.0
29/11:30pm 16.4 17.5 14.6 89 1.0 W 2 4 1 2 1023.3 - 0.0
29/11:15pm 16.8 17.6 14.9 88 1.1 W 4 6 2 3 1023.3 - 0.0
29/11:00pm 17.1 18.0 15.0 87 1.2 WNW 4 6 2 3 1023.5 - 0.0
29/10:45pm 17.3 18.2 15.2 87 1.2 NNW 4 6 2 3 1023.4 - 0.0
29/10:30pm 17.5 18.5 15.3 87 1.3 N 4 6 2 3 1023.3 - 0.0
29/10:15pm 17.7 18.6 15.2 85 1.5 NNE 4 7 2 4 1023.1 - 0.0
29/10:00pm 18.0 18.6 15.4 85 1.5 NNE 6 7 3 4 1022.9 - 0.0
29/09:45pm 18.3 19.0 15.6 84 1.6 NNE 6 7 3 4 1022.8 - 0.0
29/09:30pm 18.6 19.2 15.7 83 1.7 NNE 7 9 4 5 1022.6 - 0.0
29/09:15pm 18.7 19.5 15.8 83 1.7 ENE 6 9 3 5 1022.4 - 0.0
29/09:00pm 18.9 19.7 15.8 82 1.8 ENE 6 11 3 6 1022.2 - 0.0
29/08:45pm 19.1 19.4 15.9 82 1.9 NE 9 11 5 6 1022.2 - 0.0
29/08:30pm 19.1 19.4 15.9 82 1.9 NE 9 13 5 7 1022.1 - 0.0
29/08:15pm 19.2 19.5 15.9 81 2.0 NE 9 13 5 7 1021.9 - 0.0
29/08:00pm 19.4 19.3 16.0 81 2.0 NE 11 17 6 9 1021.7 - 0.0
29/07:45pm 19.5 19.1 16.1 81 2.0 NE 13 17 7 9 1021.5 - 0.0
29/07:30pm 19.6 19.2 16.1 80 2.1 NE 13 19 7 10 1021.3 - 0.0
29/07:15pm 19.9 19.8 16.0 78 2.3 NNE 11 17 6 9 1021.2 - 0.0
29/07:00pm 20.4 20.0 16.2 77 2.5 NNE 13 22 7 12 1021.0 - 0.0
29/06:45pm 20.7 20.0 16.3 76 2.7 NE 15 24 8 13 1020.9 - 0.0
29/06:30pm 20.9 20.5 16.3 75 2.8 NE 13 19 7 10 1020.8 - 0.0
29/06:15pm 21.0 20.6 16.3 74 2.8 NE 13 20 7 11 1020.8 - 0.0
29/06:00pm 21.3 20.6 16.3 73 3.0 NE 15 22 8 12 1020.7 - 0.0
29/05:45pm 21.5 20.3 16.2 72 3.2 NE 17 28 9 15 1020.4 - 0.0
29/05:30pm 21.9 20.2 16.2 70 3.5 NE 20 28 11 15 1020.5 - 0.0
29/05:15pm 22.5 21.5 16.6 69 3.6 NE 17 24 9 13 1020.6 - 0.0
29/05:00pm 22.5 21.5 16.6 69 3.6 ENE 17 24 9 13 1020.5 - 0.0
29/04:45pm 22.8 21.4 16.6 68 3.8 ENE 19 26 10 14 1020.5 - 0.0
29/04:30pm 23.2 22.2 16.7 67 4.0 ENE 17 24 9 13 1020.5 - 0.0
29/04:15pm 23.5 22.0 16.4 64 4.4 ENE 19 22 10 12 1020.6 - 0.0
29/04:00pm 24.3 23.3 15.6 58 5.3 ENE 15 20 8 11 1020.6 - 0.0
29/03:45pm 25.2 24.7 12.2 44 7.5 E 6 13 3 7 1020.5 - 0.0
29/03:30pm 25.6 25.1 12.2 43 7.7 ENE 6 11 3 6 1020.6 - 0.0
29/03:15pm 25.2 24.9 11.6 42 7.8 NNE 4 9 2 5 1020.7 - 0.0
29/03:00pm 24.8 25.0 12.0 44 7.3 NW 2 7 1 4 1020.9 - 0.0
29/02:45pm 24.5 23.4 12.0 45 7.2 N 9 17 5 9 1020.8 - 0.0
29/02:30pm 24.3 24.3 13.5 51 6.3 N 6 13 3 7 1020.9 - 0.0
29/02:15pm 23.6 23.1 13.7 53 5.8 NW 9 22 5 12 1021.3 - 0.0
29/02:00pm 23.6 23.1 13.9 54 5.7 N 9 20 5 11 1021.5 - 0.0
29/01:45pm 23.6 23.1 14.8 57 5.3 - 11 19 6 10 1021.6 - 0.0
29/01:30pm 22.8 21.8 14.6 60 4.9 N 13 22 7 12 1022.0 - 0.0
29/01:15pm 23.1 22.2 14.9 60 4.9 N 13 22 7 12 1022.2 - 0.0
29/01:00pm 22.8 22.0 15.0 61 4.7 N 13 22 7 12 1022.4 - 0.0
29/12:45pm 22.5 21.8 15.3 63 4.3 NNW 13 24 7 13 1022.6 - 0.0
29/12:30pm 21.7 20.8 14.8 65 4.1 NNW 13 26 7 14 1022.8 - 0.0
29/12:15pm 21.5 19.8 14.8 65 4.0 NNW 17 24 9 13 1022.9 - 0.0
29/12:00pm 21.6 20.4 15.1 66 3.9 NNW 15 28 8 15 1023.0 - 0.0
29/11:45am 21.2 20.4 15.1 68 3.6 NNW 13 22 7 12 1023.2 - 0.0
29/11:30am 20.8 20.0 15.1 70 3.4 NNW 13 22 7 12 1023.2 - 0.0
29/11:15am 20.4 20.0 15.2 72 3.1 NNW 11 22 6 12 1023.3 - 0.0
29/11:00am 19.5 19.3 14.6 73 2.9 WNW 9 13 5 7 1023.4 - 0.0
29/10:45am 19.3 19.1 14.6 74 2.7 WNW 9 17 5 9 1023.7 - 0.0
29/10:30am 18.6 17.9 14.3 76 2.5 WNW 11 19 6 10 1023.9 - 0.0
29/10:15am 18.6 17.5 14.2 75 2.5 WNW 13 19 7 10 1023.7 - 0.0
29/10:00am 18.3 18.5 14.6 79 2.2 WNW 7 13 4 7 1023.6 - 0.0
29/09:45am 17.7 18.0 14.6 82 1.8 WNW 6 11 3 6 1023.5 - 0.0
29/09:30am 17.2 17.8 15.3 88 1.1 WNW 6 7 3 4 1023.3 - 0.0
29/09:15am 15.6 15.8 14.3 92 0.7 W 6 9 3 5 1023.3 - 0.0
29/09:00am 14.1 13.7 12.9 92 0.7 W 7 9 4 5 1023.2 - 0.0
29/08:45am 13.1 12.6 11.9 92 0.6 W 6 7 3 4 1023.1 - 0.0
29/08:30am 12.7 11.9 11.6 93 0.6 W 7 9 4 5 1023.0 - 0.0
29/08:15am 12.4 11.5 11.3 93 0.6 W 7 9 4 5 1022.9 - 0.0
29/08:00am 12.1 10.7 11.0 93 0.6 W 9 13 5 7 1023.0 - 0.0
29/07:45am 11.9 10.5 10.8 93 0.6 W 9 9 5 5 1022.9 - 0.0
29/07:30am 11.7 10.8 10.6 93 0.6 W 6 9 3 5 1022.7 - 0.0
29/07:15am 11.7 10.6 10.6 93 0.6 WNW 7 7 4 4 1022.5 - 0.0
29/07:00am 11.4 10.4 10.3 93 0.6 WNW 6 7 3 4 1022.3 - 0.0
29/06:45am 11.4 10.4 10.2 92 0.6 W 6 7 3 4 1022.2 - 0.0
29/06:30am 11.3 10.3 10.2 93 0.6 W 6 7 3 4 1022.1 - 0.0
29/06:15am 11.3 10.6 10.1 92 0.6 W 4 7 2 4 1022.0 - 0.0
29/06:00am 11.5 10.5 10.4 93 0.6 WNW 6 7 3 4 1022.0 - 0.0
29/05:45am 11.3 10.0 10.1 92 0.6 WNW 7 9 4 5 1022.0 - 0.0
29/05:30am 11.1 10.4 9.9 92 0.6 NW 4 6 2 3 1021.8 - 0.0
29/05:15am 11.2 10.5 10.0 92 0.6 WNW 4 7 2 4 1022.0 - 0.0
29/05:00am 11.1 10.4 9.9 92 0.6 WNW 4 6 2 3 1022.0 - 0.0
29/04:45am 11.0 10.6 9.8 92 0.6 W 2 4 1 2 1021.9 - 0.0
29/04:30am 11.0 10.6 9.7 92 0.7 W 2 4 1 2 1022.0 - 0.0
29/04:15am 11.1 10.3 9.8 92 0.7 W 4 6 2 3 1022.1 - 0.0
29/04:00am 11.3 10.6 10.0 92 0.7 WNW 4 6 2 3 1022.0 - 0.0
29/03:45am 11.5 10.8 10.1 91 0.7 WNW 4 4 2 2 1022.1 - 0.0
29/03:30am 11.6 10.9 10.2 91 0.7 NNW 4 4 2 2 1022.2 - 0.0
29/03:15am 11.5 11.2 10.1 91 0.7 N 2 2 1 1 1022.4 - 0.0
29/03:00am 11.6 11.7 10.2 91 0.7 CALM 0 0 0 0 1022.4 - 0.0
29/02:45am 11.8 11.9 10.3 90 0.8 CALM 0 2 0 1 1022.5 - 0.0
29/02:30am 11.8 11.6 10.3 90 0.8 E 2 4 1 2 1022.5 - 0.0
29/02:15am 11.9 11.3 10.3 90 0.8 E 4 4 2 2 1022.6 - 0.0
29/02:00am 12.0 11.4 10.3 89 0.9 E 4 4 2 2 1022.8 - 0.0
29/01:45am 12.2 11.6 10.4 89 0.9 E 4 4 2 2 1022.9 - 0.0
29/01:30am 12.4 11.9 10.6 89 0.9 E 4 4 2 2 1023.1 - 0.0
29/01:15am 12.3 11.7 10.3 87 1.0 E 4 6 2 3 1023.2 - 0.0
29/01:00am 12.5 11.6 10.5 88 1.0 ENE 6 7 3 4 1023.2 - 0.0
29/12:45am 12.7 12.1 10.5 86 1.1 ENE 4 4 2 2 1023.4 - 0.0
29/12:30am 13.0 12.5 10.7 86 1.2 NE 4 6 2 3 1023.5 - 0.0
29/12:15am 13.1 12.6 10.6 85 1.3 NE 4 6 2 3 1023.5 - 0.0
29/12:00am 13.4 12.9 10.8 84 1.4 NE 4 6 2 3 1023.5 - 0.0
 
Date/Time
EDT
Temp
°C
App
Temp
°C
Dew
Point
Rel
Hum
%
Delta-T
°C
Wind Press
QNH
hPa
Press
MSL
hPa
Rain
since 9 am
mm
Dir
 
Spd
km/h
Gust
km/h
Spd
kts
Gust
kts
28/11:45pm 13.9 13.5 11.1 83 1.5 ENE 4 6 2 3 1023.6 - 0.0
28/11:30pm 14.2 13.9 11.3 83 1.6 ENE 4 6 2 3 1023.6 - 0.0
28/11:15pm 14.2 13.4 11.1 81 1.7 ENE 6 7 3 4 1023.7 - 0.0
28/11:00pm 14.8 13.9 11.3 79 1.9 E 7 9 4 5 1023.6 - 0.0
28/10:45pm 15.5 14.8 12.1 80 1.9 E 7 9 4 5 1023.8 - 0.0
28/10:30pm 15.2 14.7 11.9 81 1.8 E 6 7 3 4 1024.1 - 0.0
28/10:15pm 14.8 13.9 11.2 79 1.9 ESE 7 11 4 6 1023.9 - 0.0
28/10:00pm 15.3 14.1 11.5 78 2.1 ESE 9 11 5 6 1023.8 - 0.0
28/09:45pm 15.8 13.9 11.8 77 2.2 ESE 13 15 7 8 1023.8 - 0.0
28/09:30pm 16.1 14.2 11.9 76 2.3 SE 13 15 7 8 1023.6 - 0.0
28/09:15pm 16.2 14.7 12.0 76 2.3 SE 11 15 6 8 1023.4 - 0.0
28/09:00pm 16.2 14.7 11.9 75 2.4 ESE 11 15 6 8 1023.4 - 0.0
28/08:45pm 16.3 14.8 11.9 75 2.4 ESE 11 13 6 7 1023.2 - 0.0
28/08:30pm 16.5 15.0 11.9 74 2.5 ESE 11 15 6 8 1023.1 - 0.0
28/08:15pm 16.6 14.8 12.0 74 2.5 SE 13 17 7 9 1022.8 - 0.0
28/08:00pm 16.8 15.0 12.0 73 2.6 SE 13 19 7 10 1022.8 - 0.0
28/07:45pm 17.1 15.3 12.0 72 2.8 ESE 13 17 7 9 1022.7 - 0.0
28/07:30pm 17.3 15.5 12.0 71 2.9 ESE 13 17 7 9 1022.5 - 0.0
28/07:15pm 17.6 15.7 11.9 69 3.1 ESE 13 17 7 9 1022.4 - 0.0
28/07:00pm 18.0 15.7 11.9 67 3.4 ESE 15 19 8 10 1022.3 - 0.0
28/06:45pm 18.3 16.0 11.9 66 3.5 ESE 15 19 8 10 1022.2 - 0.0
28/06:30pm 18.6 16.0 11.9 65 3.7 ESE 17 24 9 13 1022.1 - 0.0
28/06:15pm 18.9 16.3 12.0 64 3.8 SE 17 22 9 12 1021.9 - 0.0
28/06:00pm 19.2 16.5 11.7 62 4.2 ESE 17 24 9 13 1021.8 - 0.0
28/05:45pm 19.4 16.4 11.8 61 4.2 ESE 19 24 10 13 1021.7 - 0.0
28/05:30pm 19.7 17.1 11.9 60 4.4 SE 17 24 9 13 1021.6 - 0.0
28/05:15pm 19.8 16.8 11.9 60 4.4 SE 19 24 10 13 1021.6 - 0.0
28/05:00pm 19.9 17.3 12.1 60 4.4 ESE 17 22 9 12 1021.5 - 0.0
28/04:45pm 20.1 17.6 12.3 61 4.4 ESE 17 24 9 13 1021.5 - 0.0
28/04:30pm 20.3 17.3 12.0 59 4.7 ESE 19 24 10 13 1021.5 - 0.0
28/04:15pm 20.5 17.9 11.9 57 4.8 ESE 17 22 9 12 1021.4 - 0.0
28/04:00pm 20.5 18.7 12.0 58 4.8 ESE 13 22 7 12 1021.5 - 0.0
28/03:45pm 20.3 18.1 12.0 59 4.7 ESE 15 24 8 13 1021.7 - 0.0
28/03:30pm 20.6 18.4 12.1 58 4.8 ESE 15 26 8 14 1021.8 - 0.0
28/03:15pm 20.5 18.2 11.8 57 4.9 ESE 15 26 8 14 1021.9 - 0.0
28/03:00pm 20.3 18.3 11.5 57 4.9 ESE 13 20 7 11 1021.9 - 0.0
28/02:45pm 21.0 19.1 11.7 55 5.2 SSE 13 19 7 10 1022.0 - 0.0
28/02:30pm 20.8 18.5 11.6 55 5.1 ESE 15 22 8 12 1022.1 - 0.0
28/02:15pm 20.3 18.7 11.5 57 4.9 ESE 11 19 6 10 1022.3 - 0.0
28/02:00pm 20.1 18.3 10.9 55 5.1 SE 11 22 6 12 1022.4 - 0.0
28/01:45pm 20.7 18.5 10.9 53 5.4 SE 13 19 7 10 1022.3 - 0.0
28/01:30pm 21.5 20.2 11.2 52 5.7 ESE 9 22 5 12 1022.5 - 0.0
28/01:15pm 20.7 19.6 10.7 52 5.5 E 7 13 4 7 1022.8 - 0.0
28/01:00pm 20.2 18.2 10.2 52 5.4 SSE 11 19 6 10 1023.0 - 0.0
28/12:45pm 21.1 19.6 10.5 50 5.8 SE 9 17 5 9 1023.1 - 0.0
28/12:30pm 21.0 18.6 10.2 50 5.9 SSE 13 19 7 10 1023.2 - 0.0
28/12:15pm 20.8 19.7 9.8 49 5.9 ESE 6 15 3 8 1023.3 - 0.0
28/12:00pm 20.5 19.1 9.5 49 5.9 ESE 7 13 4 7 1023.3 - 0.0
28/11:45am 20.9 19.5 9.7 48 6.0 ESE 7 15 4 8 1023.3 - 0.0
28/11:30am 20.5 18.8 9.7 50 5.8 ESE 9 17 5 9 1023.3 - 0.0
28/11:15am 20.2 18.4 9.6 50 5.7 SE 9 19 5 10 1023.3 - 0.0
28/11:00am 20.1 17.9 9.5 50 5.7 ESE 11 19 6 10 1023.4 - 0.0
28/10:45am 19.9 18.5 9.6 51 5.5 S 7 17 4 9 1023.4 - 0.0
28/10:30am 19.5 17.6 9.1 51 5.5 SSE 9 15 5 8 1023.5 - 0.0
28/10:15am 19.5 18.0 9.2 51 5.5 SSW 7 15 4 8 1023.4 - 0.0
28/10:00am 18.6 16.6 8.6 52 5.2 SW 9 15 5 8 1023.4 - 0.0
28/09:45am 17.9 15.4 8.2 53 5.0 SW 11 17 6 9 1023.4 - 0.0
28/09:30am 17.2 14.2 7.7 53 4.8 SW 13 19 7 10 1023.3 - 0.0
28/09:15am 16.8 14.2 7.8 55 4.6 SW 11 19 6 10 1023.2 - 0.0
28/09:00am 16.3 12.9 7.7 56 4.3 SW 15 22 8 12 1023.1 - 0.0
28/08:45am 15.5 12.1 7.5 59 4.0 SW 15 22 8 12 1023.0 - 0.0
28/08:30am 14.7 10.8 7.1 60 3.8 SW 17 22 9 12 1022.8 - 0.0
28/08:15am 14.0 9.6 6.7 61 3.6 SW 19 22 10 12 1022.6 - 0.0
28/08:00am 13.7 9.3 6.4 61 3.5 SW 19 22 10 12 1022.4 - 0.0
28/07:45am 13.4 8.7 6.1 61 3.5 SW 20 22 11 12 1022.3 - 0.0
28/07:30am 13.3 8.6 6.1 61 3.4 SW 20 24 11 13 1022.1 - 0.0
28/07:15am 13.2 8.7 6.0 61 3.4 SW 19 22 10 12 1021.9 - 0.0
28/07:00am 13.1 8.6 5.9 61 3.4 SW 19 22 10 12 1021.7 - 0.0
28/06:45am 12.9 8.7 5.9 62 3.3 SW 17 22 9 12 1021.5 - 0.0
28/06:30am 12.9 8.7 5.8 62 3.4 SW 17 22 9 12 1021.3 - 0.0
28/06:15am 13.0 8.4 5.8 61 3.4 SW 19 22 10 12 1021.2 - 0.0
28/06:00am 13.2 9.0 5.8 61 3.5 SW 17 20 9 11 1021.0 - 0.0
28/05:45am 13.4 9.2 5.8 60 3.6 SW 17 20 9 11 1020.7 - 0.0
28/05:30am 13.5 9.3 5.9 60 3.6 SSW 17 19 9 10 1020.5 - 0.0
28/05:15am 13.7 9.9 5.9 59 3.7 SSW 15 19 8 10 1020.4 - 0.0
28/05:00am 13.9 10.1 5.7 57 3.9 SSW 15 17 8 9 1020.4 - 0.0
28/04:45am 14.3 9.8 5.9 57 4.0 SW 19 22 10 12 1020.2 - 0.0
28/04:30am 14.3 9.8 5.9 57 4.0 SW 19 24 10 13 1020.2 - 0.0
28/04:15am 14.4 9.9 5.9 56 4.1 SW 19 22 10 12 1020.1 - 0.0
28/04:00am 14.4 9.9 6.0 57 4.0 SW 19 24 10 13 1020.1 - 0.0
28/03:45am 14.4 9.9 6.0 57 4.0 SW 19 24 10 13 1020.1 - 0.0
28/03:30am 14.6 10.1 5.9 56 4.2 SW 19 24 10 13 1020.2 - 0.0
28/03:15am 14.9 10.4 6.0 55 4.3 SW 19 24 10 13 1020.2 - 0.0
28/03:00am 15.0 9.5 6.0 55 4.4 SW 24 32 13 17 1020.2 - 0.0
28/02:45am 15.0 9.5 6.0 55 4.4 SW 24 28 13 15 1020.4 - 0.0
28/02:30am 15.0 9.9 6.0 55 4.4 SW 22 26 12 14 1020.4 - 0.0
28/02:15am 15.3 10.6 5.9 53 4.5 SW 20 24 11 13 1020.4 - 0.0
28/02:00am 15.8 11.1 5.9 51 4.8 SW 20 28 11 15 1020.4 - 0.0
28/01:45am 16.1 11.4 6.0 51 4.9 SW 20 30 11 16 1020.5 - 0.0
28/01:30am 16.2 11.1 5.9 50 5.0 SW 22 30 12 16 1020.4 - 0.0
28/01:15am 16.3 10.8 5.7 49 5.1 SW 24 33 13 18 1020.3 - 0.0
28/01:00am 16.5 10.6 6.0 50 5.1 SW 26 33 14 18 1020.3 - 0.0
28/12:45am 16.6 11.5 6.0 49 5.2 SW 22 30 12 16 1020.4 - 0.0
28/12:30am 16.6 11.1 6.0 49 5.2 SW 24 32 13 17 1020.4 - 0.0
28/12:15am 16.6 11.1 6.0 49 5.2 SW 24 30 13 16 1020.4 - 0.0
28/12:00am 16.7 11.2 5.9 49 5.3 SW 24 30 13 16 1020.4 - 0.0
 
Date/Time
EDT
Temp
°C
App
Temp
°C
Dew
Point
Rel
Hum
%
Delta-T
°C
Wind Press
QNH
hPa
Press
MSL
hPa
Rain
since 9 am
mm
Dir
 
Spd
km/h
Gust
km/h
Spd
kts
Gust
kts
27/11:45pm 17.0 11.5 5.9 48 5.4 SW 24 32 13 17 1020.4 - 0.0

Other Formats:

Comma delimited format used in spreadsheet applications
http://www.bom.gov.au/fwo/IDN60801/IDN60801.95757.axf

JavaScript Object Notation format (JSON) in row-major order
http://www.bom.gov.au/fwo/IDN60801/IDN60801.95757.json